Scf Baltica — A8IA5 — position and weather

sailwx.info

Track history (hours):
 
Tides and Currents Weather Stations Pressure Air Temp Water Temp Dewpoint Dewpoint Depression Visibility Wind Speed Wind Dir Waves Ship Positions

Scf Baltica

Last reported at 2015-Jul-05 19:33 UTC. Time now 2015-Jul-06 04:56 UTC.
Position N 55°49' W 007°13'.

Length 250 m; draft 9 m.

Type: Ship. MMSI: 636012813.

Date/timePositionNaut miles runAvg speedWind from/ knotsBaromVisibWave heightAir tempDewpointWater temp
2015-Jul-05 19:33N 55°49' W 007°13'1010.0
2015-Jul-05 18:33N 55°43' W 006°58'1211.7
2015-Jul-05 17:33N 55°36' W 006°42'1312.7
2015-Jul-05 16:33N 55°29' W 006°23'1212.0
2015-Jul-05 15:33N 55°25' W 006°03'1312.8
2015-Jul-05 14:33N 55°14' W 005°50'1111.3
2015-Jul-05 13:33N 55°05' W 005°39'1010.0
2015-Jul-05 12:33N 54°57' W 005°29'9 8.9
2015-Jul-05 11:33N 54°50' W 005°19'8 7.6
2015-Jul-05 10:33N 54°43' W 005°12'9 9.2
2015-Jul-05 09:33N 54°36' W 005°03'10 9.8
2015-Jul-05 08:33N 54°26' W 005°00'1010.0
2015-Jul-05 07:33N 54°16' W 004°60'1010.1
2015-Jul-05 06:33N 54°06' W 005°00'4210.2
2015-Jul-05 02:24N 53°38' W 004°06'910.7
2015-Jul-05 01:33N 53°34' W 003°52'10 9.7
2015-Jul-05 00:33N 53°34' W 003°36'9 8.9
2015-Jul-04 23:33N 53°33' W 003°21'9 9.0
2015-Jul-04 22:33N 53°31' W 003°06'8 8.0
2015-Jul-04 21:33N 53°24' W 003°00'1 0.9
2015-Jul-04 20:30N 53°23' W 003°00'0 0.0
2015-Jul-04 19:33N 53°23' W 003°00'0 0.0
2015-Jul-04 18:33N 53°23' W 003°00'0 0.0
2015-Jul-04 17:33N 53°23' W 003°00'0 0.0
2015-Jul-04 16:27N 53°23' W 003°00'0 0.0
2015-Jul-04 15:33N 53°23' W 003°00'0 0.0
2015-Jul-04 14:30N 53°23' W 003°00'0 0.0
2015-Jul-04 13:33N 53°23' W 003°00'0 0.0
2015-Jul-04 12:33N 53°23' W 003°00'0 0.0
2015-Jul-04 11:30N 53°23' W 003°00'0 0.0
2015-Jul-04 10:33N 53°23' W 003°00'0 0.0
2015-Jul-04 09:27N 53°23' W 003°00'0 0.0
2015-Jul-04 08:33N 53°23' W 003°00'0 0.0
2015-Jul-04 07:33N 53°23' W 003°00'0 0.0
2015-Jul-04 06:30N 53°23' W 003°00'0 0.0
2015-Jul-04 05:33N 53°23' W 003°00'0 0.0
2015-Jul-04 04:30N 53°23' W 003°00'0 0.0
2015-Jul-04 03:30N 53°23' W 003°00'0 0.0
2015-Jul-04 02:33N 53°23' W 003°00'0 0.0
2015-Jul-04 01:30N 53°23' W 003°00'0 0.0
2015-Jul-04 00:33N 53°23' W 003°00'0 0.0
2015-Jul-03 23:33N 53°23' W 003°00'0 0.0
2015-Jul-03 22:33N 53°23' W 003°00'0 0.0
2015-Jul-03 21:24N 53°23' W 003°00'0 0.0
2015-Jul-03 20:30N 53°23' W 003°00'0 0.0
2015-Jul-03 19:33N 53°23' W 003°00'0 0.0
2015-Jul-03 18:27N 53°23' W 003°00'0 0.0
2015-Jul-03 17:33N 53°23' W 003°00'0 0.0
2015-Jul-03 16:30N 53°23' W 003°00'0 0.0
2015-Jul-03 15:33N 53°23' W 003°00'0 0.0
2015-Jul-03 14:30N 53°23' W 003°00'0 0.0
2015-Jul-03 13:33N 53°23' W 003°00'0 0.0
2015-Jul-03 12:30N 53°23' W 003°00'0 0.3
2015-Jul-03 11:33N 53°23' W 003°00'8 7.8
2015-Jul-03 10:33N 53°30' W 003°06'9 8.9
2015-Jul-03 09:33N 53°31' W 003°21'1212.0
2015-Jul-03 08:33N 53°31' W 003°41'1111.2
2015-Jul-03 07:32N 53°29' W 003°60'1010.6
2015-Jul-03 06:33N 53°28' W 004°17'5 5.3
2015-Jul-03 05:34N 53°25' W 004°09'0 0.3
2015-Jul-03 04:22N 53°25' W 004°10'0 0.0
2015-Jul-03 03:25N 53°25' W 004°10'0 0.0
2015-Jul-03 01:28N 53°25' W 004°10'0 0.0
2015-Jul-03 00:28N 53°25' W 004°10'0 0.1
2015-Jul-02 22:19N 53°25' W 004°09'0 0.0
2015-Jul-02 19:28N 53°25' W 004°09'0 0.1
2015-Jul-02 18:22N 53°25' W 004°09'0 0.1
2015-Jul-02 17:04N 53°25' W 004°09'0 0.1
2015-Jul-02 16:25N 53°25' W 004°10'0 0.0
2015-Jul-02 15:22N 53°25' W 004°10'0 0.0
2015-Jul-02 14:28N 53°25' W 004°10'2 1.6
2015-Jul-02 13:33N 53°26' W 004°11'4810.9
2015-Jul-02 09:07N 54°05' W 004°60'711.9
2015-Jul-02 08:33N 54°12' W 005°00'1212.3
2015-Jul-02 07:34N 54°24' W 005°00'1312.6
2015-Jul-02 06:33N 54°35' W 005°12'1313.1
2015-Jul-02 05:33N 54°46' W 005°23'1212.1
2015-Jul-02 04:33N 54°57' W 005°34'20 9.9
2015-Jul-02 02:34N 55°12' W 005°56'8 7.8
2015-Jul-02 01:33N 55°18' W 006°04'9 8.6
2015-Jul-02 00:33N 55°22' W 006°17'1110.9
2015-Jul-01 23:33N 55°28' W 006°33'1212.3
2015-Jul-01 22:33N 55°35' W 006°51'1412.9
2015-Jul-01 21:28N 55°43' W 007°12'255 9.3
2015-Jun-30 18:04N 59°32' W 003°43'612.2
2015-Jun-30 17:33N 59°32' W 003°30'13210.1
2015-Jun-30 04:31N 57°41' W 001°14'8111.5
2015-Jun-29 21:26N 56°23' W 001°55'1112.4
2015-Jun-29 20:33N 56°15' W 002°09'1211.8
2015-Jun-29 19:33N 56°07' W 002°24'5 5.4
2015-Jun-29 18:33N 56°04' W 002°32'0 0.2
2015-Jun-29 17:28N 56°04' W 002°32'0 0.0
2015-Jun-29 16:28N 56°04' W 002°32'0 0.0
2015-Jun-29 15:28N 56°04' W 002°32'0 0.0
2015-Jun-29 14:31N 56°04' W 002°32'0 0.0
2015-Jun-29 13:31N 56°04' W 002°32'0 0.1
2015-Jun-29 12:28N 56°04' W 002°32'0 0.0
2015-Jun-29 11:31N 56°04' W 002°32'0 0.0
2015-Jun-29 10:31N 56°04' W 002°32'0 0.1
2015-Jun-29 09:31N 56°04' W 002°32'0 0.0
2015-Jun-29 08:22N 56°04' W 002°32'0 0.1
2015-Jun-29 07:22N 56°04' W 002°32'0 0.1
2015-Jun-29 06:25N 56°04' W 002°32'0 0.0
2015-Jun-29 05:25N 56°04' W 002°32'0 0.0
2015-Jun-29 04:10N 56°04' W 002°32'0 0.0
2015-Jun-29 03:28N 56°04' W 002°32'0 0.0
2015-Jun-29 02:28N 56°04' W 002°32'0 0.0
2015-Jun-29 01:28N 56°04' W 002°32'0 0.0
2015-Jun-29 00:31N 56°04' W 002°32'0 0.0
2015-Jun-28 23:28N 56°04' W 002°32'0 0.1
2015-Jun-28 22:31N 56°04' W 002°32'0 0.1
2015-Jun-28 21:31N 56°04' W 002°32'0 0.0
2015-Jun-28 20:19N 56°04' W 002°32'0 0.0
2015-Jun-28 19:31N 56°04' W 002°32'0 0.0
2015-Jun-28 18:31N 56°04' W 002°32'0 0.1
2015-Jun-28 17:19N 56°04' W 002°32'0 0.0
2015-Jun-28 16:25N 56°04' W 002°32'0 0.0
2015-Jun-28 15:25N 56°04' W 002°32'0 0.1
2015-Jun-28 14:25N 56°04' W 002°32'2 2.0
2015-Jun-28 13:33N 56°05' W 002°30'1 0.6
2015-Jun-28 12:33N 56°05' W 002°29'0 0.1
2015-Jun-28 11:33N 56°05' W 002°29'0 0.0
2015-Jun-28 10:24N 56°06' W 002°29'0 0.1
2015-Jun-28 09:21N 56°06' W 002°29'0 0.1
2015-Jun-28 08:27N 56°06' W 002°29'0 0.0
2015-Jun-28 07:27N 56°06' W 002°29'0 0.0
2015-Jun-28 06:24N 56°06' W 002°29'0 0.0
2015-Jun-28 05:30N 56°06' W 002°29'0 0.1
2015-Jun-28 04:30N 56°06' W 002°29'0 0.1
2015-Jun-28 03:30N 56°06' W 002°29'0 0.0
2015-Jun-28 02:33N 56°06' W 002°29'0 0.1
2015-Jun-28 01:33N 56°05' W 002°29'0 0.0
2015-Jun-28 00:30N 56°05' W 002°29'0 0.1
2015-Jun-27 23:33N 56°06' W 002°29'0 0.2
2015-Jun-27 22:33N 56°05' W 002°29'0 0.1
2015-Jun-27 21:24N 56°05' W 002°29'0 0.1
2015-Jun-27 20:21N 56°06' W 002°29'0 0.0
2015-Jun-27 19:24N 56°06' W 002°29'0 0.1
2015-Jun-27 18:27N 56°06' W 002°29'0 0.2
2015-Jun-27 17:27N 56°06' W 002°29'0 0.0
2015-Jun-27 16:30N 56°06' W 002°29'0 0.0
2015-Jun-27 15:30N 56°06' W 002°29'0 0.1
2015-Jun-27 14:30N 56°05' W 002°29'0 0.0
2015-Jun-27 13:33N 56°05' W 002°29'0 0.0
2015-Jun-27 12:30N 56°05' W 002°29'0 0.0
2015-Jun-27 11:33N 56°05' W 002°29'0 0.0
2015-Jun-27 10:33N 56°05' W 002°29'0 0.0
2015-Jun-27 09:33N 56°05' W 002°29'0 0.0
2015-Jun-27 08:33N 56°05' W 002°29'0 0.0
2015-Jun-27 07:33N 56°05' W 002°29'0 0.0
2015-Jun-27 06:24N 56°05' W 002°29'0 0.0
2015-Jun-27 05:24N 56°05' W 002°29'0 0.1
2015-Jun-27 04:27N 56°05' W 002°29'0 0.0
2015-Jun-27 03:27N 56°05' W 002°29'0 0.0
2015-Jun-27 01:30N 56°05' W 002°29'0 0.0
2015-Jun-27 00:30N 56°05' W 002°29'0 0.0
2015-Jun-26 23:33N 56°05' W 002°29'0 0.0
2015-Jun-26 22:33N 56°05' W 002°29'0 0.0
2015-Jun-26 21:30N 56°05' W 002°29'0 0.0
2015-Jun-26 20:21N 56°05' W 002°29'0 0.0
2015-Jun-26 19:33N 56°05' W 002°29'0 0.0
2015-Jun-26 18:33N 56°05' W 002°29'0 0.2
2015-Jun-26 17:24N 56°06' W 002°29'0 0.0
2015-Jun-26 16:24N 56°06' W 002°29'0 0.0
2015-Jun-26 15:27N 56°06' W 002°29'0 0.1
2015-Jun-26 14:27N 56°06' W 002°29'0 0.1
2015-Jun-26 13:27N 56°06' W 002°29'0 0.1
2015-Jun-26 12:27N 56°05' W 002°29'0 0.0
2015-Jun-26 11:30N 56°05' W 002°29'0 0.0
2015-Jun-26 10:30N 56°05' W 002°29'0 0.1
2015-Jun-26 09:33N 56°05' W 002°29'0 0.1
2015-Jun-26 08:33N 56°05' W 002°29'0 0.1
2015-Jun-26 07:33N 56°06' W 002°29'0 0.0
2015-Jun-26 06:33N 56°06' W 002°29'0 0.0
2015-Jun-26 05:33N 56°06' W 002°29'0 0.0
2015-Jun-26 04:33N 56°06' W 002°29'0 0.0
2015-Jun-26 03:33N 56°06' W 002°29'0 0.1
2015-Jun-26 02:24N 56°06' W 002°29'0 0.1
2015-Jun-26 01:21N 56°06' W 002°29'0 0.0
2015-Jun-26 00:27N 56°06' W 002°29'0 0.0
2015-Jun-25 23:27N 56°05' W 002°29'0 0.1
2015-Jun-25 22:30N 56°05' W 002°29'0 0.1
2015-Jun-25 21:30N 56°05' W 002°29'0 0.0
2015-Jun-25 20:30N 56°05' W 002°29'  
Track history (hours):
 
Tides and Currents Weather Stations Pressure Air Temp Water Temp Dewpoint Dewpoint Depression Visibility Wind Speed Wind Dir Waves Ship Positions

Scf Baltica

Last reported at 2015-Jul-05 19:33 UTC. Time now 2015-Jul-06 04:56 UTC.
Position N 55°49' W 007°13'.

Length 250 m; draft 9 m.

Type: Ship. MMSI: 636012813.

Date/timePositionNaut miles runAvg speedWind from/ knotsBaromVisibWave heightAir tempDewpointWater temp
2015-Jul-05 19:33N 55°49' W 007°13'1010.0
2015-Jul-05 18:33N 55°43' W 006°58'1211.7
2015-Jul-05 17:33N 55°36' W 006°42'1312.7
2015-Jul-05 16:33N 55°29' W 006°23'1212.0
2015-Jul-05 15:33N 55°25' W 006°03'1312.8
2015-Jul-05 14:33N 55°14' W 005°50'1111.3
2015-Jul-05 13:33N 55°05' W 005°39'1010.0
2015-Jul-05 12:33N 54°57' W 005°29'9 8.9
2015-Jul-05 11:33N 54°50' W 005°19'8 7.6
2015-Jul-05 10:33N 54°43' W 005°12'9 9.2
2015-Jul-05 09:33N 54°36' W 005°03'10 9.8
2015-Jul-05 08:33N 54°26' W 005°00'1010.0
2015-Jul-05 07:33N 54°16' W 004°60'1010.1
2015-Jul-05 06:33N 54°06' W 005°00'4210.2
2015-Jul-05 02:24N 53°38' W 004°06'910.7
2015-Jul-05 01:33N 53°34' W 003°52'10 9.7
2015-Jul-05 00:33N 53°34' W 003°36'9 8.9
2015-Jul-04 23:33N 53°33' W 003°21'9 9.0
2015-Jul-04 22:33N 53°31' W 003°06'8 8.0
2015-Jul-04 21:33N 53°24' W 003°00'1 0.9
2015-Jul-04 20:30N 53°23' W 003°00'0 0.0
2015-Jul-04 19:33N 53°23' W 003°00'0 0.0
2015-Jul-04 18:33N 53°23' W 003°00'0 0.0
2015-Jul-04 17:33N 53°23' W 003°00'0 0.0
2015-Jul-04 16:27N 53°23' W 003°00'0 0.0
2015-Jul-04 15:33N 53°23' W 003°00'0 0.0
2015-Jul-04 14:30N 53°23' W 003°00'0 0.0
2015-Jul-04 13:33N 53°23' W 003°00'0 0.0
2015-Jul-04 12:33N 53°23' W 003°00'0 0.0
2015-Jul-04 11:30N 53°23' W 003°00'0 0.0
2015-Jul-04 10:33N 53°23' W 003°00'0 0.0
2015-Jul-04 09:27N 53°23' W 003°00'0 0.0
2015-Jul-04 08:33N 53°23' W 003°00'0 0.0
2015-Jul-04 07:33N 53°23' W 003°00'0 0.0
2015-Jul-04 06:30N 53°23' W 003°00'0 0.0
2015-Jul-04 05:33N 53°23' W 003°00'0 0.0
2015-Jul-04 04:30N 53°23' W 003°00'0 0.0
2015-Jul-04 03:30N 53°23' W 003°00'0 0.0
2015-Jul-04 02:33N 53°23' W 003°00'0 0.0
2015-Jul-04 01:30N 53°23' W 003°00'0 0.0
2015-Jul-04 00:33N 53°23' W 003°00'0 0.0
2015-Jul-03 23:33N 53°23' W 003°00'0 0.0
2015-Jul-03 22:33N 53°23' W 003°00'0 0.0
2015-Jul-03 21:24N 53°23' W 003°00'0 0.0
2015-Jul-03 20:30N 53°23' W 003°00'0 0.0
2015-Jul-03 19:33N 53°23' W 003°00'0 0.0
2015-Jul-03 18:27N 53°23' W 003°00'0 0.0
2015-Jul-03 17:33N 53°23' W 003°00'0 0.0
2015-Jul-03 16:30N 53°23' W 003°00'0 0.0
2015-Jul-03 15:33N 53°23' W 003°00'0 0.0
2015-Jul-03 14:30N 53°23' W 003°00'0 0.0
2015-Jul-03 13:33N 53°23' W 003°00'0 0.0
2015-Jul-03 12:30N 53°23' W 003°00'0 0.3
2015-Jul-03 11:33N 53°23' W 003°00'8 7.8
2015-Jul-03 10:33N 53°30' W 003°06'9 8.9
2015-Jul-03 09:33N 53°31' W 003°21'1212.0
2015-Jul-03 08:33N 53°31' W 003°41'1111.2
2015-Jul-03 07:32N 53°29' W 003°60'1010.6
2015-Jul-03 06:33N 53°28' W 004°17'5 5.3
2015-Jul-03 05:34N 53°25' W 004°09'0 0.3
2015-Jul-03 04:22N 53°25' W 004°10'0 0.0
2015-Jul-03 03:25N 53°25' W 004°10'0 0.0
2015-Jul-03 01:28N 53°25' W 004°10'0 0.0
2015-Jul-03 00:28N 53°25' W 004°10'0 0.1
2015-Jul-02 22:19N 53°25' W 004°09'0 0.0
2015-Jul-02 19:28N 53°25' W 004°09'0 0.1
2015-Jul-02 18:22N 53°25' W 004°09'0 0.1
2015-Jul-02 17:04N 53°25' W 004°09'0 0.1
2015-Jul-02 16:25N 53°25' W 004°10'0 0.0
2015-Jul-02 15:22N 53°25' W 004°10'0 0.0
2015-Jul-02 14:28N 53°25' W 004°10'2 1.6
2015-Jul-02 13:33N 53°26' W 004°11'4810.9
2015-Jul-02 09:07N 54°05' W 004°60'711.9
2015-Jul-02 08:33N 54°12' W 005°00'1212.3
2015-Jul-02 07:34N 54°24' W 005°00'1312.6
2015-Jul-02 06:33N 54°35' W 005°12'1313.1
2015-Jul-02 05:33N 54°46' W 005°23'1212.1
2015-Jul-02 04:33N 54°57' W 005°34'20 9.9
2015-Jul-02 02:34N 55°12' W 005°56'8 7.8
2015-Jul-02 01:33N 55°18' W 006°04'9 8.6
2015-Jul-02 00:33N 55°22' W 006°17'1110.9
2015-Jul-01 23:33N 55°28' W 006°33'1212.3
2015-Jul-01 22:33N 55°35' W 006°51'1412.9
2015-Jul-01 21:28N 55°43' W 007°12'255 9.3
2015-Jun-30 18:04N 59°32' W 003°43'612.2
2015-Jun-30 17:33N 59°32' W 003°30'13210.1
2015-Jun-30 04:31N 57°41' W 001°14'8111.5
2015-Jun-29 21:26N 56°23' W 001°55'1112.4
2015-Jun-29 20:33N 56°15' W 002°09'1211.8
2015-Jun-29 19:33N 56°07' W 002°24'5 5.4
2015-Jun-29 18:33N 56°04' W 002°32'0 0.2
2015-Jun-29 17:28N 56°04' W 002°32'0 0.0
2015-Jun-29 16:28N 56°04' W 002°32'0 0.0
2015-Jun-29 15:28N 56°04' W 002°32'0 0.0
2015-Jun-29 14:31N 56°04' W 002°32'0 0.0
2015-Jun-29 13:31N 56°04' W 002°32'0 0.1
2015-Jun-29 12:28N 56°04' W 002°32'0 0.0
2015-Jun-29 11:31N 56°04' W 002°32'0 0.0
2015-Jun-29 10:31N 56°04' W 002°32'0 0.1
2015-Jun-29 09:31N 56°04' W 002°32'0 0.0
2015-Jun-29 08:22N 56°04' W 002°32'0 0.1
2015-Jun-29 07:22N 56°04' W 002°32'0 0.1
2015-Jun-29 06:25N 56°04' W 002°32'0 0.0
2015-Jun-29 05:25N 56°04' W 002°32'0 0.0
2015-Jun-29 04:10N 56°04' W 002°32'0 0.0
2015-Jun-29 03:28N 56°04' W 002°32'0 0.0
2015-Jun-29 02:28N 56°04' W 002°32'0 0.0
2015-Jun-29 01:28N 56°04' W 002°32'0 0.0
2015-Jun-29 00:31N 56°04' W 002°32'0 0.0
2015-Jun-28 23:28N 56°04' W 002°32'0 0.1
2015-Jun-28 22:31N 56°04' W 002°32'0 0.1
2015-Jun-28 21:31N 56°04' W 002°32'0 0.0
2015-Jun-28 20:19N 56°04' W 002°32'0 0.0
2015-Jun-28 19:31N 56°04' W 002°32'0 0.0
2015-Jun-28 18:31N 56°04' W 002°32'0 0.1
2015-Jun-28 17:19N 56°04' W 002°32'0 0.0
2015-Jun-28 16:25N 56°04' W 002°32'0 0.0
2015-Jun-28 15:25N 56°04' W 002°32'0 0.1
2015-Jun-28 14:25N 56°04' W 002°32'2 2.0
2015-Jun-28 13:33N 56°05' W 002°30'1 0.6
2015-Jun-28 12:33N 56°05' W 002°29'0 0.1
2015-Jun-28 11:33N 56°05' W 002°29'0 0.0
2015-Jun-28 10:24N 56°06' W 002°29'0 0.1
2015-Jun-28 09:21N 56°06' W 002°29'0 0.1
2015-Jun-28 08:27N 56°06' W 002°29'0 0.0
2015-Jun-28 07:27N 56°06' W 002°29'0 0.0
2015-Jun-28 06:24N 56°06' W 002°29'0 0.0
2015-Jun-28 05:30N 56°06' W 002°29'0 0.1
2015-Jun-28 04:30N 56°06' W 002°29'0 0.1
2015-Jun-28 03:30N 56°06' W 002°29'0 0.0
2015-Jun-28 02:33N 56°06' W 002°29'0 0.1
2015-Jun-28 01:33N 56°05' W 002°29'0 0.0
2015-Jun-28 00:30N 56°05' W 002°29'0 0.1
2015-Jun-27 23:33N 56°06' W 002°29'0 0.2
2015-Jun-27 22:33N 56°05' W 002°29'0 0.1
2015-Jun-27 21:24N 56°05' W 002°29'0 0.1
2015-Jun-27 20:21N 56°06' W 002°29'0 0.0
2015-Jun-27 19:24N 56°06' W 002°29'0 0.1
2015-Jun-27 18:27N 56°06' W 002°29'0 0.2
2015-Jun-27 17:27N 56°06' W 002°29'0 0.0
2015-Jun-27 16:30N 56°06' W 002°29'0 0.0
2015-Jun-27 15:30N 56°06' W 002°29'0 0.1
2015-Jun-27 14:30N 56°05' W 002°29'0 0.0
2015-Jun-27 13:33N 56°05' W 002°29'0 0.0
2015-Jun-27 12:30N 56°05' W 002°29'0 0.0
2015-Jun-27 11:33N 56°05' W 002°29'0 0.0
2015-Jun-27 10:33N 56°05' W 002°29'0 0.0
2015-Jun-27 09:33N 56°05' W 002°29'0 0.0
2015-Jun-27 08:33N 56°05' W 002°29'0 0.0
2015-Jun-27 07:33N 56°05' W 002°29'0 0.0
2015-Jun-27 06:24N 56°05' W 002°29'0 0.0
2015-Jun-27 05:24N 56°05' W 002°29'0 0.1
2015-Jun-27 04:27N 56°05' W 002°29'0 0.0
2015-Jun-27 03:27N 56°05' W 002°29'0 0.0
2015-Jun-27 01:30N 56°05' W 002°29'0 0.0
2015-Jun-27 00:30N 56°05' W 002°29'0 0.0
2015-Jun-26 23:33N 56°05' W 002°29'0 0.0
2015-Jun-26 22:33N 56°05' W 002°29'0 0.0
2015-Jun-26 21:30N 56°05' W 002°29'0 0.0
2015-Jun-26 20:21N 56°05' W 002°29'0 0.0
2015-Jun-26 19:33N 56°05' W 002°29'0 0.0
2015-Jun-26 18:33N 56°05' W 002°29'0 0.2
2015-Jun-26 17:24N 56°06' W 002°29'0 0.0
2015-Jun-26 16:24N 56°06' W 002°29'0 0.0
2015-Jun-26 15:27N 56°06' W 002°29'0 0.1
2015-Jun-26 14:27N 56°06' W 002°29'0 0.1
2015-Jun-26 13:27N 56°06' W 002°29'0 0.1
2015-Jun-26 12:27N 56°05' W 002°29'0 0.0
2015-Jun-26 11:30N 56°05' W 002°29'0 0.0
2015-Jun-26 10:30N 56°05' W 002°29'0 0.1
2015-Jun-26 09:33N 56°05' W 002°29'0 0.1
2015-Jun-26 08:33N 56°05' W 002°29'0 0.1
2015-Jun-26 07:33N 56°06' W 002°29'0 0.0
2015-Jun-26 06:33N 56°06' W 002°29'0 0.0
2015-Jun-26 05:33N 56°06' W 002°29'0 0.0
2015-Jun-26 04:33N 56°06' W 002°29'0 0.0
2015-Jun-26 03:33N 56°06' W 002°29'0 0.1
2015-Jun-26 02:24N 56°06' W 002°29'0 0.1
2015-Jun-26 01:21N 56°06' W 002°29'0 0.0
2015-Jun-26 00:27N 56°06' W 002°29'0 0.0
2015-Jun-25 23:27N 56°05' W 002°29'0 0.1
2015-Jun-25 22:30N 56°05' W 002°29'0 0.1
2015-Jun-25 21:30N 56°05' W 002°29'0 0.0
2015-Jun-25 20:30N 56°05' W 002°29'  

Dump ship's entire track history